createdAt,value
2023-01-31T00:00:30.704Z,0.00
2023-01-31T00:01:30.636Z,0.00
2023-01-31T00:02:30.841Z,0.00
2023-01-31T00:03:30.708Z,0.00
2023-01-31T00:04:30.592Z,0.00
2023-01-31T00:05:30.621Z,0.00
2023-01-31T00:06:30.656Z,0.00
2023-01-31T00:07:30.571Z,0.00
2023-01-31T00:08:30.850Z,0.00
2023-01-31T00:09:30.648Z,0.00
2023-01-31T00:10:30.515Z,0.00
2023-01-31T00:11:30.652Z,0.00
2023-01-31T00:12:30.450Z,0.00
2023-01-31T00:13:30.677Z,0.00
2023-01-31T00:14:30.450Z,0.00
2023-01-31T00:15:30.650Z,0.00
2023-01-31T00:16:30.416Z,0.00
2023-01-31T00:17:30.597Z,0.00
2023-01-31T00:18:30.422Z,0.00
2023-01-31T00:19:30.504Z,0.00
2023-01-31T00:20:30.368Z,0.00
2023-01-31T00:21:30.423Z,0.00
2023-01-31T00:22:30.338Z,0.00
2023-01-31T00:23:30.481Z,0.00
2023-01-31T00:24:30.395Z,0.00
2023-01-31T00:25:30.331Z,0.00
2023-01-31T00:26:30.538Z,0.00
2023-01-31T00:27:30.335Z,0.00
2023-01-31T00:28:30.498Z,0.00
2023-01-31T00:29:30.273Z,0.00
2023-01-31T00:30:30.356Z,0.00
2023-01-31T00:31:30.383Z,0.00
2023-01-31T00:32:30.319Z,0.00
2023-01-31T00:33:30.249Z,0.00
2023-01-31T00:34:30.342Z,0.00
2023-01-31T00:35:30.220Z,0.00
2023-01-31T00:36:30.337Z,0.00
2023-01-31T00:37:30.168Z,0.00
2023-01-31T00:38:30.256Z,0.00
2023-01-31T00:39:30.148Z,0.00
2023-01-31T00:40:30.225Z,0.00
2023-01-31T00:41:30.171Z,0.00
2023-01-31T00:42:30.138Z,0.00
2023-01-31T00:43:30.139Z,0.00
2023-01-31T00:44:30.157Z,0.00
2023-01-31T00:45:30.185Z,0.00
2023-01-31T00:46:30.050Z,0.00
2023-01-31T00:47:30.196Z,0.00
2023-01-31T00:48:31.038Z,0.00
2023-01-31T00:49:30.153Z,0.00
2023-01-31T00:50:30.223Z,0.00
2023-01-31T00:51:30.044Z,0.00
2023-01-31T00:52:30.156Z,0.00
2023-01-31T00:53:30.020Z,0.00
2023-01-31T00:54:30.032Z,0.00
2023-01-31T00:55:30.128Z,0.00
2023-01-31T00:56:29.913Z,0.00
2023-01-31T00:57:30.054Z,0.00
2023-01-31T00:58:29.906Z,0.00
2023-01-31T00:59:29.975Z,0.00
2023-01-31T01:00:29.944Z,0.00
2023-01-31T01:01:29.972Z,0.00
2023-01-31T01:02:29.870Z,0.00
2023-01-31T01:03:29.881Z,0.00
2023-01-31T01:04:29.829Z,0.00
2023-01-31T01:05:30.060Z,0.00
2023-01-31T01:06:29.796Z,0.00
2023-01-31T01:07:29.922Z,0.00
2023-01-31T01:08:29.757Z,0.00
2023-01-31T01:09:29.828Z,0.00
2023-01-31T01:10:29.809Z,0.00
2023-01-31T01:11:29.858Z,0.00
2023-01-31T01:12:29.728Z,0.00
2023-01-31T01:13:29.866Z,0.00
2023-01-31T01:14:29.699Z,0.00
2023-01-31T01:15:29.845Z,0.00
2023-01-31T01:16:29.689Z,0.00
2023-01-31T01:17:29.799Z,0.00
2023-01-31T01:18:29.658Z,0.00
2023-01-31T01:19:29.688Z,0.00
2023-01-31T01:20:29.643Z,0.00
2023-01-31T01:21:29.756Z,0.00
2023-01-31T01:22:29.639Z,0.00
2023-01-31T01:23:29.724Z,0.00
2023-01-31T01:24:29.572Z,0.00
2023-01-31T01:25:29.645Z,0.00
2023-01-31T01:26:29.745Z,0.00
2023-01-31T01:27:29.583Z,0.00
2023-01-31T01:28:30.219Z,0.00
2023-01-31T01:29:29.978Z,0.00
2023-01-31T01:30:30.093Z,0.00
2023-01-31T01:31:30.335Z,0.00
2023-01-31T01:32:29.886Z,0.00
2023-01-31T01:33:29.666Z,0.00
2023-01-31T01:34:29.580Z,0.00
2023-01-31T01:35:29.457Z,0.00
2023-01-31T01:36:29.510Z,0.00
2023-01-31T01:37:29.462Z,0.00
2023-01-31T01:38:30.314Z,0.00
2023-01-31T01:39:29.753Z,0.00
2023-01-31T01:40:30.035Z,0.00
2023-01-31T01:41:29.835Z,0.00
2023-01-31T01:42:30.103Z,0.00
2023-01-31T01:43:29.600Z,0.00
2023-01-31T01:44:29.442Z,0.00
2023-01-31T01:45:29.470Z,0.00
2023-01-31T01:46:29.400Z,0.00
2023-01-31T01:47:29.354Z,0.00
2023-01-31T01:48:29.374Z,0.00
2023-01-31T01:49:29.287Z,0.00
2023-01-31T01:50:30.199Z,0.00
2023-01-31T01:51:29.956Z,0.00
2023-01-31T01:52:29.764Z,0.00
2023-01-31T01:53:29.684Z,0.00
2023-01-31T01:54:29.450Z,0.00
2023-01-31T01:55:29.340Z,0.00
2023-01-31T01:56:29.353Z,0.00
2023-01-31T01:57:29.250Z,0.00
2023-01-31T01:58:29.175Z,0.00
2023-01-31T01:59:29.267Z,0.00
2023-01-31T02:00:29.164Z,0.00
2023-01-31T02:01:29.915Z,0.00
2023-01-31T02:02:29.909Z,0.00
2023-01-31T02:03:29.567Z,0.00
2023-01-31T02:04:29.385Z,0.00
2023-01-31T02:05:29.721Z,0.00
2023-01-31T02:06:29.479Z,0.00
2023-01-31T02:07:29.050Z,0.00
2023-01-31T02:08:29.107Z,0.00
2023-01-31T02:09:29.027Z,0.00
2023-01-31T02:10:29.117Z,0.00
2023-01-31T02:11:29.615Z,0.00
2023-01-31T02:12:29.557Z,0.00
2023-01-31T02:13:29.489Z,0.00
2023-01-31T02:14:29.408Z,0.00
2023-01-31T02:15:29.409Z,0.00
2023-01-31T02:16:29.265Z,0.00
2023-01-31T02:17:29.282Z,0.00
2023-01-31T02:18:29.011Z,0.00
2023-01-31T02:19:28.969Z,0.00
2023-01-31T02:20:29.101Z,0.00
2023-01-31T02:21:28.881Z,0.00
2023-01-31T02:22:29.053Z,0.00
2023-01-31T02:23:29.024Z,0.00
2023-01-31T02:24:28.828Z,0.00
2023-01-31T02:25:29.463Z,0.00
2023-01-31T02:26:28.852Z,0.00
2023-01-31T02:27:28.885Z,0.00
2023-01-31T02:28:28.854Z,0.00
2023-01-31T02:29:28.782Z,0.00
2023-01-31T02:30:28.848Z,0.00
2023-01-31T02:31:28.782Z,0.00
2023-01-31T02:32:28.914Z,0.00
2023-01-31T02:33:28.735Z,0.00
2023-01-31T02:34:28.788Z,0.00
2023-01-31T02:35:29.139Z,0.00
2023-01-31T02:36:28.887Z,0.00
2023-01-31T02:37:28.713Z,0.00
2023-01-31T02:38:28.694Z,0.00
2023-01-31T02:39:28.666Z,0.00
2023-01-31T02:40:28.832Z,0.00
2023-01-31T02:41:28.643Z,0.00
2023-01-31T02:42:28.746Z,0.00
2023-01-31T02:43:28.644Z,0.00
2023-01-31T02:44:28.659Z,0.00
2023-01-31T02:45:28.558Z,0.00
2023-01-31T02:46:28.673Z,0.00
2023-01-31T02:47:28.536Z,0.00
2023-01-31T02:48:28.642Z,0.00
2023-01-31T02:49:28.571Z,0.00
2023-01-31T02:50:28.514Z,0.00
2023-01-31T02:51:31.181Z,0.00
2023-01-31T02:52:28.495Z,0.00
2023-01-31T02:53:28.636Z,0.00
2023-01-31T02:54:28.461Z,0.00
2023-01-31T02:55:28.626Z,0.00
2023-01-31T02:56:28.446Z,0.00
2023-01-31T02:57:28.621Z,0.00
2023-01-31T02:58:28.419Z,0.00
2023-01-31T02:59:28.491Z,0.00
2023-01-31T03:00:28.392Z,0.00
2023-01-31T03:01:28.460Z,0.00
2023-01-31T03:02:28.377Z,0.00
2023-01-31T03:03:28.501Z,0.00
2023-01-31T03:04:28.347Z,0.00
2023-01-31T03:05:28.363Z,0.00
2023-01-31T03:06:28.308Z,0.00
2023-01-31T03:07:29.562Z,0.00
2023-01-31T03:08:28.287Z,0.00
2023-01-31T03:09:28.495Z,0.00
2023-01-31T03:10:28.268Z,0.00
2023-01-31T03:11:28.299Z,0.00
2023-01-31T03:12:28.282Z,0.00
2023-01-31T03:13:28.334Z,0.00
2023-01-31T03:14:28.244Z,0.00
2023-01-31T03:15:28.256Z,0.00
2023-01-31T03:16:28.226Z,0.00
2023-01-31T03:17:28.287Z,0.00
2023-01-31T03:18:28.173Z,0.00
2023-01-31T03:19:28.269Z,0.00
2023-01-31T03:20:28.300Z,0.00
2023-01-31T03:21:28.137Z,0.00
2023-01-31T03:22:28.200Z,0.00
2023-01-31T03:23:28.078Z,0.00
2023-01-31T03:24:28.311Z,0.00
2023-01-31T03:25:28.216Z,0.00
2023-01-31T03:26:28.146Z,0.00
2023-01-31T03:27:28.170Z,0.00
2023-01-31T03:28:28.050Z,0.00
2023-01-31T03:29:28.139Z,0.00
2023-01-31T03:30:28.206Z,0.00
2023-01-31T03:31:28.109Z,0.00
2023-01-31T03:32:28.184Z,0.00
2023-01-31T03:33:27.993Z,0.00
2023-01-31T03:34:28.254Z,0.00
2023-01-31T03:35:27.927Z,0.00
2023-01-31T03:36:28.199Z,0.00
2023-01-31T03:37:27.905Z,0.00
2023-01-31T03:38:28.013Z,0.00
2023-01-31T03:39:27.885Z,0.00
2023-01-31T03:40:28.074Z,0.00
2023-01-31T03:41:27.857Z,0.00
2023-01-31T03:42:28.050Z,0.00
2023-01-31T03:43:27.825Z,0.00
2023-01-31T03:44:27.953Z,0.00
2023-01-31T03:45:27.840Z,0.00
2023-01-31T03:46:28.074Z,0.00
2023-01-31T03:47:27.782Z,0.00
2023-01-31T03:48:27.876Z,0.00
2023-01-31T03:49:27.771Z,0.00
2023-01-31T03:50:27.892Z,0.00
2023-01-31T03:51:27.924Z,0.00
2023-01-31T03:52:27.767Z,0.00
2023-01-31T03:53:27.796Z,0.00
2023-01-31T03:54:27.720Z,0.00
2023-01-31T03:55:27.849Z,0.00
2023-01-31T03:56:27.821Z,0.00
2023-01-31T03:57:27.659Z,0.00
2023-01-31T03:58:27.733Z,0.00
2023-01-31T03:59:27.654Z,0.00
2023-01-31T04:00:27.763Z,0.00
2023-01-31T04:01:27.643Z,0.00
2023-01-31T04:02:27.807Z,0.00
2023-01-31T04:03:27.603Z,0.00
2023-01-31T04:04:27.687Z,0.00
2023-01-31T04:05:27.570Z,0.00
2023-01-31T04:06:27.685Z,0.00
2023-01-31T04:07:27.576Z,0.00
2023-01-31T04:08:27.705Z,0.00
2023-01-31T04:09:27.513Z,0.00
2023-01-31T04:10:27.729Z,0.00
2023-01-31T04:11:27.493Z,0.00
2023-01-31T04:12:27.741Z,0.00
2023-01-31T04:13:27.511Z,0.00
2023-01-31T04:14:27.547Z,0.00
2023-01-31T04:15:27.420Z,0.00
2023-01-31T04:16:27.604Z,0.00
2023-01-31T04:17:27.423Z,0.00
2023-01-31T04:18:27.617Z,0.00
2023-01-31T04:19:27.440Z,0.00
2023-01-31T04:20:27.473Z,0.00
2023-01-31T04:21:27.366Z,0.00
2023-01-31T04:22:27.494Z,0.00
2023-01-31T04:23:27.335Z,0.00
2023-01-31T04:24:27.607Z,0.00
2023-01-31T04:25:27.354Z,0.00
2023-01-31T04:26:27.469Z,0.00
2023-01-31T04:27:27.384Z,0.00
2023-01-31T04:28:27.311Z,0.00
2023-01-31T04:29:27.371Z,0.00
2023-01-31T04:30:27.297Z,0.00
2023-01-31T04:31:27.430Z,0.00
2023-01-31T04:32:27.253Z,0.00
2023-01-31T04:33:27.345Z,0.00
2023-01-31T04:34:27.244Z,0.00
2023-01-31T04:35:27.300Z,0.00
2023-01-31T04:36:27.215Z,0.00
2023-01-31T04:37:27.281Z,0.00
2023-01-31T04:38:27.175Z,0.00
2023-01-31T04:39:27.323Z,0.00
2023-01-31T04:40:27.188Z,0.00
2023-01-31T04:41:27.199Z,0.00
2023-01-31T04:42:27.134Z,0.00
2023-01-31T04:43:27.216Z,0.00
2023-01-31T04:44:27.112Z,0.00
2023-01-31T04:45:27.257Z,0.00
2023-01-31T04:46:27.200Z,0.00
2023-01-31T04:47:27.237Z,0.00
2023-01-31T04:48:28.967Z,0.00
2023-01-31T04:49:27.177Z,0.00
2023-01-31T04:50:27.031Z,0.00
2023-01-31T04:51:27.072Z,0.00
2023-01-31T04:52:27.057Z,0.00
2023-01-31T04:53:27.090Z,0.00
2023-01-31T04:54:26.999Z,0.00
2023-01-31T04:55:27.097Z,0.00
2023-01-31T04:56:26.999Z,0.00
2023-01-31T04:57:27.021Z,0.00
2023-01-31T04:58:26.938Z,0.00
2023-01-31T04:59:27.031Z,0.00
2023-01-31T05:00:26.925Z,0.00
2023-01-31T05:01:27.097Z,0.00
2023-01-31T05:02:26.954Z,0.00
2023-01-31T05:03:27.038Z,0.00
2023-01-31T05:04:26.851Z,0.00
2023-01-31T05:05:27.058Z,0.00
2023-01-31T05:06:26.832Z,0.00
2023-01-31T05:07:26.931Z,0.00
2023-01-31T05:08:26.804Z,0.00
2023-01-31T05:09:26.895Z,0.00
2023-01-31T05:10:26.788Z,0.00
2023-01-31T05:11:26.924Z,0.00
2023-01-31T05:12:26.818Z,0.00
2023-01-31T05:13:26.831Z,0.00
2023-01-31T05:14:26.825Z,0.00
2023-01-31T05:15:26.724Z,0.00
2023-01-31T05:16:26.982Z,0.00
2023-01-31T05:17:26.741Z,0.00
2023-01-31T05:18:26.771Z,0.00
2023-01-31T05:19:26.751Z,0.00
2023-01-31T05:20:26.676Z,0.00
2023-01-31T05:21:26.762Z,0.00
2023-01-31T05:22:26.672Z,0.00
2023-01-31T05:23:26.713Z,0.00
2023-01-31T05:24:26.619Z,0.00
2023-01-31T05:25:26.702Z,0.00
2023-01-31T05:26:26.608Z,0.00
2023-01-31T05:27:26.797Z,0.00
2023-01-31T05:28:26.553Z,0.00
2023-01-31T05:29:26.619Z,0.00
2023-01-31T05:30:26.571Z,0.00
2023-01-31T05:31:26.744Z,0.00
2023-01-31T05:32:26.505Z,0.00
2023-01-31T05:33:28.297Z,0.00
2023-01-31T05:34:26.489Z,0.00
2023-01-31T05:35:26.595Z,0.00
2023-01-31T05:36:26.454Z,0.00
2023-01-31T05:37:26.585Z,0.00
2023-01-31T05:38:26.445Z,0.00
2023-01-31T05:39:26.488Z,0.00
2023-01-31T05:40:26.564Z,0.00
2023-01-31T05:41:26.378Z,0.00
2023-01-31T05:42:26.524Z,0.00
2023-01-31T05:43:26.370Z,0.00
2023-01-31T05:44:26.532Z,0.00
2023-01-31T05:45:26.368Z,0.00
2023-01-31T05:46:26.604Z,4.00
2023-01-31T05:47:26.353Z,4.00
2023-01-31T05:48:26.469Z,4.00
2023-01-31T05:49:26.281Z,4.00
2023-01-31T05:50:26.366Z,4.00
2023-01-31T05:51:26.269Z,4.00
2023-01-31T05:52:26.438Z,4.00
2023-01-31T05:53:26.220Z,4.00
2023-01-31T05:54:26.418Z,4.00
2023-01-31T05:55:26.199Z,4.00
2023-01-31T05:56:26.426Z,4.00
2023-01-31T05:57:26.219Z,0.00
2023-01-31T05:58:27.020Z,0.00
2023-01-31T05:59:26.177Z,0.00
2023-01-31T06:00:26.341Z,0.00
2023-01-31T06:01:26.134Z,0.00
2023-01-31T06:02:26.323Z,0.00
2023-01-31T06:03:26.175Z,0.00
2023-01-31T06:04:26.265Z,0.00
2023-01-31T06:05:26.098Z,0.00
2023-01-31T06:06:26.187Z,0.00
2023-01-31T06:07:26.071Z,0.00
2023-01-31T06:08:26.211Z,0.00
2023-01-31T06:09:26.035Z,0.00
2023-01-31T06:10:26.200Z,0.00
2023-01-31T06:11:26.005Z,0.00
2023-01-31T06:12:26.164Z,0.00
2023-01-31T06:13:25.978Z,0.00
2023-01-31T06:14:26.189Z,0.00
2023-01-31T06:15:25.949Z,0.00
2023-01-31T06:16:26.196Z,0.00
2023-01-31T06:17:32.151Z,0.00
2023-01-31T06:18:26.039Z,0.00
2023-01-31T06:19:25.924Z,4.00
2023-01-31T06:20:26.083Z,4.00
2023-01-31T06:21:25.888Z,4.00
2023-01-31T06:22:26.009Z,4.00
2023-01-31T06:23:25.874Z,4.00
2023-01-31T06:24:26.151Z,4.00
2023-01-31T06:25:25.843Z,4.00
2023-01-31T06:26:26.083Z,4.00
2023-01-31T06:27:25.806Z,0.00
2023-01-31T06:28:25.953Z,4.00
2023-01-31T06:29:25.843Z,0.00
2023-01-31T06:30:26.050Z,4.00
2023-01-31T06:31:25.884Z,4.00
2023-01-31T06:32:25.957Z,0.00
2023-01-31T06:33:38.374Z,4.00
2023-01-31T06:34:25.781Z,4.00
2023-01-31T06:35:25.953Z,4.00
2023-01-31T06:36:25.745Z,4.00
2023-01-31T06:37:25.772Z,4.00
2023-01-31T06:38:25.686Z,4.00
2023-01-31T06:39:25.772Z,8.00
2023-01-31T06:40:25.723Z,8.00
2023-01-31T06:41:25.730Z,12.00
2023-01-31T06:42:25.802Z,12.00
2023-01-31T06:43:25.612Z,16.00
2023-01-31T06:44:26.646Z,16.00
2023-01-31T06:45:25.620Z,16.00
2023-01-31T06:46:25.729Z,20.00
2023-01-31T06:47:25.550Z,28.00
2023-01-31T06:48:25.692Z,32.00
2023-01-31T06:49:25.522Z,40.00
2023-01-31T06:50:25.619Z,44.00
2023-01-31T06:51:25.542Z,52.00
2023-01-31T06:52:25.817Z,56.00
2023-01-31T06:53:25.484Z,60.00
2023-01-31T06:54:25.608Z,68.00
2023-01-31T06:55:25.537Z,76.00
2023-01-31T06:56:25.605Z,84.00
2023-01-31T06:57:25.432Z,92.00
2023-01-31T06:58:25.549Z,100.00
2023-01-31T06:59:25.434Z,108.00
2023-01-31T07:00:25.521Z,112.00
2023-01-31T07:01:25.439Z,120.00
2023-01-31T07:02:25.625Z,132.00
2023-01-31T07:03:25.615Z,136.00
2023-01-31T07:04:25.385Z,144.00
2023-01-31T07:05:25.586Z,156.00
2023-01-31T07:06:25.368Z,164.00
2023-01-31T07:07:25.489Z,172.00
2023-01-31T07:08:25.325Z,176.00
2023-01-31T07:09:25.410Z,184.00
2023-01-31T07:10:25.263Z,192.00
2023-01-31T07:11:25.434Z,208.00
2023-01-31T07:12:25.344Z,220.00
2023-01-31T07:13:25.517Z,228.00
2023-01-31T07:14:25.226Z,236.00
2023-01-31T07:15:25.444Z,248.00
2023-01-31T07:16:25.257Z,260.00
2023-01-31T07:17:25.384Z,276.00
2023-01-31T07:18:25.187Z,284.00
2023-01-31T07:19:25.445Z,288.00
2023-01-31T07:20:25.136Z,304.00
2023-01-31T07:21:25.212Z,320.00
2023-01-31T07:22:25.123Z,332.00
2023-01-31T07:23:25.331Z,348.00
2023-01-31T07:24:25.237Z,360.00
2023-01-31T07:25:25.112Z,376.00
2023-01-31T07:26:25.239Z,388.00
2023-01-31T07:27:25.083Z,400.00
2023-01-31T07:28:25.197Z,412.00
2023-01-31T07:29:25.088Z,436.00
2023-01-31T07:30:25.117Z,472.00
2023-01-31T07:31:25.029Z,504.00
2023-01-31T07:32:25.249Z,496.00
2023-01-31T07:33:25.007Z,508.00
2023-01-31T07:34:25.084Z,516.00
2023-01-31T07:35:24.983Z,540.00
2023-01-31T07:36:25.061Z,576.00
2023-01-31T07:37:24.980Z,600.00
2023-01-31T07:38:25.209Z,600.00
2023-01-31T07:39:25.135Z,652.00
2023-01-31T07:40:24.992Z,616.00
2023-01-31T07:41:24.942Z,620.00
2023-01-31T07:42:25.101Z,688.00
2023-01-31T07:43:24.904Z,652.00
2023-01-31T07:44:24.951Z,612.00
2023-01-31T07:45:24.924Z,576.00
2023-01-31T07:46:24.864Z,640.00
2023-01-31T07:47:24.958Z,660.00
2023-01-31T07:48:24.830Z,700.00
2023-01-31T07:49:25.081Z,788.00
2023-01-31T07:50:24.813Z,928.00
2023-01-31T07:51:24.939Z,908.00
2023-01-31T07:52:24.737Z,928.00
2023-01-31T07:53:24.906Z,712.00
2023-01-31T07:54:24.722Z,780.00
2023-01-31T07:55:24.967Z,1080.00
2023-01-31T07:56:24.696Z,1204.00
2023-01-31T07:57:24.818Z,1208.00
2023-01-31T07:58:24.671Z,1252.00
2023-01-31T07:59:24.828Z,1252.00
2023-01-31T08:00:24.650Z,1540.00
2023-01-31T08:01:25.002Z,1692.00
2023-01-31T08:02:24.636Z,1664.00
2023-01-31T08:03:24.817Z,1460.00
2023-01-31T08:04:24.637Z,1272.00
2023-01-31T08:05:24.789Z,1200.00
2023-01-31T08:06:24.815Z,1024.00
2023-01-31T08:07:26.905Z,1012.00
2023-01-31T08:08:24.789Z,1024.00
2023-01-31T08:09:24.572Z,1040.00
2023-01-31T08:10:24.687Z,1048.00
2023-01-31T08:11:24.658Z,1068.00
2023-01-31T08:12:24.546Z,1080.00
2023-01-31T08:13:24.629Z,1088.00
2023-01-31T08:14:24.512Z,1100.00
2023-01-31T08:15:24.657Z,1116.00
2023-01-31T08:16:24.495Z,1128.00
2023-01-31T08:17:24.779Z,1148.00
2023-01-31T08:18:24.425Z,1176.00
2023-01-31T08:19:24.556Z,1188.00
2023-01-31T08:20:24.469Z,1212.00
2023-01-31T08:21:24.597Z,1232.00
2023-01-31T08:22:24.578Z,1252.00
2023-01-31T08:23:24.387Z,1264.00
2023-01-31T08:24:24.473Z,1268.00
2023-01-31T08:25:24.871Z,1272.00
2023-01-31T08:26:24.530Z,1288.00
2023-01-31T08:27:24.581Z,1312.00
2023-01-31T08:28:24.302Z,1308.00
2023-01-31T08:29:24.585Z,1328.00
2023-01-31T08:30:24.494Z,1364.00
2023-01-31T08:31:25.301Z,1396.00
2023-01-31T08:32:24.643Z,1404.00
2023-01-31T08:33:24.303Z,1420.00
2023-01-31T08:34:24.363Z,1440.00
2023-01-31T08:35:24.276Z,1460.00
2023-01-31T08:36:24.429Z,1484.00
2023-01-31T08:37:24.236Z,1524.00
2023-01-31T08:38:24.337Z,1552.00
2023-01-31T08:39:24.210Z,1564.00
2023-01-31T08:40:24.455Z,1584.00
2023-01-31T08:41:24.186Z,1624.00
2023-01-31T08:42:24.217Z,1640.00
2023-01-31T08:43:24.168Z,1664.00
2023-01-31T08:44:24.224Z,1676.00
2023-01-31T08:45:24.201Z,1748.00
2023-01-31T08:46:24.436Z,1788.00
2023-01-31T08:47:24.157Z,1824.00
2023-01-31T08:48:24.176Z,1844.00
2023-01-31T08:49:24.233Z,1872.00
2023-01-31T08:50:31.549Z,1908.00
2023-01-31T08:51:24.170Z,1920.00
2023-01-31T08:52:24.211Z,1948.00
2023-01-31T08:53:24.366Z,1968.00
2023-01-31T08:54:24.521Z,1996.00
2023-01-31T08:55:24.168Z,2028.00
2023-01-31T08:56:24.028Z,2052.00
2023-01-31T08:57:24.204Z,2096.00
2023-01-31T08:58:24.176Z,2140.00
2023-01-31T08:59:24.118Z,2180.00
2023-01-31T09:00:24.062Z,2212.00
2023-01-31T09:01:24.117Z,2248.00
2023-01-31T09:02:24.165Z,2336.00
2023-01-31T09:03:23.953Z,2380.00
2023-01-31T09:04:24.058Z,2436.00
2023-01-31T09:05:24.001Z,2500.00
2023-01-31T09:06:24.177Z,2584.00
2023-01-31T09:07:24.129Z,2648.00
2023-01-31T09:08:24.026Z,2820.00
2023-01-31T09:09:23.939Z,3020.00
2023-01-31T09:10:24.158Z,3376.00
2023-01-31T09:11:23.849Z,3760.00
2023-01-31T09:12:24.057Z,4708.00
2023-01-31T09:13:23.932Z,5052.00
2023-01-31T09:14:24.016Z,5376.00
2023-01-31T09:15:24.213Z,5968.00
2023-01-31T09:16:24.165Z,5572.00
2023-01-31T09:17:23.792Z,5308.00
2023-01-31T09:18:23.999Z,4756.00
2023-01-31T09:19:23.830Z,4672.00
2023-01-31T09:20:24.177Z,4748.00
2023-01-31T09:21:23.796Z,4996.00
2023-01-31T09:22:23.894Z,5140.00
2023-01-31T09:23:23.759Z,4568.00
2023-01-31T09:24:23.903Z,6472.00
2023-01-31T09:25:41.437Z,6608.00
2023-01-31T09:26:23.665Z,7536.00
2023-01-31T09:27:23.840Z,8140.00
2023-01-31T09:28:23.617Z,8752.00
2023-01-31T09:29:23.808Z,9512.00
2023-01-31T09:30:23.660Z,8832.00
2023-01-31T09:31:23.800Z,9108.00
2023-01-31T09:32:23.547Z,8960.00
2023-01-31T09:33:23.785Z,7764.00
2023-01-31T09:34:23.602Z,7304.00
2023-01-31T09:35:23.656Z,8188.00
2023-01-31T09:36:23.551Z,10604.00
2023-01-31T09:37:23.649Z,10452.00
2023-01-31T09:38:23.500Z,12244.00
2023-01-31T09:39:23.602Z,12328.00
2023-01-31T09:40:23.587Z,11528.00
2023-01-31T09:41:23.446Z,8936.00
2023-01-31T09:42:23.674Z,7528.00
2023-01-31T09:43:23.447Z,7760.00
2023-01-31T09:44:23.477Z,5304.00
2023-01-31T09:45:23.527Z,5200.00
2023-01-31T09:46:23.376Z,3512.00
2023-01-31T09:47:23.468Z,5136.00
2023-01-31T09:48:23.314Z,8344.00
2023-01-31T09:49:23.433Z,11700.00
2023-01-31T09:50:23.326Z,21536.00
2023-01-31T09:51:23.540Z,62144.00
2023-01-31T09:52:23.320Z,37760.00
2023-01-31T09:53:23.481Z,9052.00
2023-01-31T09:54:23.271Z,61792.00
2023-01-31T09:55:23.437Z,32064.00
2023-01-31T09:56:23.229Z,18752.00
2023-01-31T09:57:23.301Z,5932.00
2023-01-31T09:58:23.175Z,6708.00
2023-01-31T09:59:23.368Z,7324.00
2023-01-31T10:00:23.468Z,9336.00
2023-01-31T10:01:23.357Z,14452.00
2023-01-31T10:02:23.416Z,15808.00
2023-01-31T10:03:23.330Z,14212.00
2023-01-31T10:04:23.128Z,17472.00
2023-01-31T10:05:23.493Z,15488.00
2023-01-31T10:06:23.218Z,12096.00
2023-01-31T10:07:23.345Z,8204.00
2023-01-31T10:08:23.455Z,5656.00
2023-01-31T10:09:23.165Z,5348.00
2023-01-31T10:10:23.331Z,5572.00
2023-01-31T10:11:23.170Z,5540.00
2023-01-31T10:12:23.236Z,4608.00
2023-01-31T10:13:23.202Z,3948.00
2023-01-31T10:14:23.166Z,4224.00
2023-01-31T10:15:23.124Z,4040.00
2023-01-31T10:16:23.247Z,4064.00
2023-01-31T10:17:23.043Z,3732.00
2023-01-31T10:18:23.262Z,3128.00
2023-01-31T10:19:23.018Z,2464.00
2023-01-31T10:20:23.798Z,2288.00
2023-01-31T10:21:23.009Z,2012.00
2023-01-31T10:22:23.935Z,1856.00
2023-01-31T10:23:23.421Z,1744.00
2023-01-31T10:24:23.563Z,1636.00
2023-01-31T10:25:23.044Z,1876.00
2023-01-31T10:26:22.973Z,2460.00
2023-01-31T10:27:23.067Z,2772.00
2023-01-31T10:28:22.882Z,2696.00
2023-01-31T10:29:23.026Z,2392.00
2023-01-31T10:30:23.279Z,3420.00
2023-01-31T10:31:22.982Z,2296.00
2023-01-31T10:32:22.741Z,2372.00
2023-01-31T10:33:22.949Z,2464.00
2023-01-31T10:34:22.735Z,2332.00
2023-01-31T10:35:22.971Z,2220.00
2023-01-31T10:36:22.766Z,2036.00
2023-01-31T10:37:22.783Z,1836.00
2023-01-31T10:38:22.683Z,1864.00
2023-01-31T10:39:22.866Z,1888.00
2023-01-31T10:40:23.421Z,1840.00
2023-01-31T10:41:22.865Z,1792.00
2023-01-31T10:42:22.633Z,1944.00
2023-01-31T10:43:22.846Z,2444.00
2023-01-31T10:44:22.596Z,2756.00
2023-01-31T10:45:23.269Z,3360.00
2023-01-31T10:46:22.576Z,5072.00
2023-01-31T10:47:22.740Z,4908.00
2023-01-31T10:48:22.727Z,5732.00
2023-01-31T10:49:22.550Z,63616.00
2023-01-31T10:50:24.263Z,48160.00
2023-01-31T10:51:22.553Z,104640.00
2023-01-31T10:52:22.655Z,107456.00
2023-01-31T10:53:22.528Z,69120.00
2023-01-31T10:54:22.599Z,49664.00
2023-01-31T10:55:22.563Z,49984.00
2023-01-31T10:56:22.619Z,35296.00
2023-01-31T10:57:22.476Z,37728.00
2023-01-31T10:58:22.494Z,19744.00
2023-01-31T10:59:22.437Z,10740.00
2023-01-31T11:00:23.065Z,8520.00
2023-01-31T11:01:22.503Z,8268.00
2023-01-31T11:02:22.459Z,55136.00
2023-01-31T11:03:22.402Z,61792.00
2023-01-31T11:04:22.635Z,79712.00
2023-01-31T11:05:22.449Z,72160.00
2023-01-31T11:06:22.497Z,75712.00
2023-01-31T11:07:22.373Z,88960.00
2023-01-31T11:08:22.451Z,10204.00
2023-01-31T11:09:23.023Z,23808.00
2023-01-31T11:10:22.603Z,11440.00
2023-01-31T11:11:22.393Z,6352.00
2023-01-31T11:12:22.273Z,3716.00
2023-01-31T11:13:22.417Z,14208.00
2023-01-31T11:14:22.256Z,17088.00
2023-01-31T11:15:22.321Z,5436.00
2023-01-31T11:16:22.217Z,6608.00
2023-01-31T11:17:22.253Z,16000.00
2023-01-31T11:18:22.197Z,5028.00
2023-01-31T11:19:22.280Z,5188.00
2023-01-31T11:20:22.621Z,15296.00
2023-01-31T11:21:22.244Z,15808.00
2023-01-31T11:22:22.175Z,10744.00
2023-01-31T11:23:22.300Z,3896.00
2023-01-31T11:24:22.106Z,4568.00
2023-01-31T11:25:22.169Z,6144.00
2023-01-31T11:26:22.118Z,5348.00
2023-01-31T11:27:22.224Z,4416.00
2023-01-31T11:28:22.068Z,6952.00
2023-01-31T11:29:22.086Z,15552.00
2023-01-31T11:30:22.583Z,14592.00
2023-01-31T11:31:22.154Z,17440.00
2023-01-31T11:32:22.060Z,16160.00
2023-01-31T11:33:22.162Z,13736.00
2023-01-31T11:34:21.996Z,15392.00
2023-01-31T11:35:22.141Z,14592.00
2023-01-31T11:36:21.979Z,15296.00
2023-01-31T11:37:22.060Z,15584.00
2023-01-31T11:38:21.955Z,10880.00
2023-01-31T11:39:22.115Z,13888.00
2023-01-31T11:40:22.228Z,10680.00
2023-01-31T11:41:21.995Z,5280.00
2023-01-31T11:42:21.906Z,4020.00
2023-01-31T11:43:22.029Z,3212.00
2023-01-31T11:44:21.933Z,4764.00
2023-01-31T11:45:21.919Z,4320.00
2023-01-31T11:46:21.986Z,2860.00
2023-01-31T11:47:21.837Z,12316.00
2023-01-31T11:48:21.949Z,5300.00
2023-01-31T11:49:21.874Z,12932.00
2023-01-31T11:50:22.773Z,8228.00
2023-01-31T11:51:21.888Z,6104.00
2023-01-31T11:52:21.882Z,5332.00
2023-01-31T11:53:21.749Z,12992.00
2023-01-31T11:54:21.878Z,6636.00
2023-01-31T11:55:21.701Z,5152.00
2023-01-31T11:56:21.835Z,4864.00
2023-01-31T11:57:21.675Z,4744.00
2023-01-31T11:58:21.811Z,5352.00
2023-01-31T11:59:21.647Z,3956.00
2023-01-31T12:00:22.156Z,3296.00
2023-01-31T12:01:21.691Z,3016.00
2023-01-31T12:02:22.021Z,3300.00
2023-01-31T12:03:21.670Z,4968.00
2023-01-31T12:04:21.812Z,5596.00
2023-01-31T12:05:21.570Z,12168.00
2023-01-31T12:06:21.657Z,6784.00
2023-01-31T12:07:21.593Z,2000.00
2023-01-31T12:08:21.712Z,6380.00
2023-01-31T12:09:21.557Z,8000.00
2023-01-31T12:10:22.126Z,5928.00
2023-01-31T12:11:22.116Z,4532.00
2023-01-31T12:12:21.654Z,3792.00
2023-01-31T12:13:21.518Z,3428.00
2023-01-31T12:14:21.642Z,3028.00
2023-01-31T12:15:21.860Z,2488.00
2023-01-31T12:16:21.687Z,2224.00
2023-01-31T12:17:21.481Z,2276.00
2023-01-31T12:18:21.608Z,2116.00
2023-01-31T12:19:21.427Z,2064.00
2023-01-31T12:20:28.132Z,2100.00
2023-01-31T12:21:21.432Z,1996.00
2023-01-31T12:22:21.514Z,1876.00
2023-01-31T12:23:21.541Z,1860.00
2023-01-31T12:24:21.399Z,1904.00
2023-01-31T12:25:21.961Z,1520.00
2023-01-31T12:26:21.359Z,1396.00
2023-01-31T12:27:21.494Z,1272.00
2023-01-31T12:28:21.314Z,1208.00
2023-01-31T12:29:21.390Z,1072.00
2023-01-31T12:30:21.349Z,952.00
2023-01-31T12:31:21.626Z,972.00
2023-01-31T12:32:21.266Z,1116.00
2023-01-31T12:33:21.438Z,1020.00
2023-01-31T12:34:21.225Z,992.00
2023-01-31T12:35:21.378Z,936.00
2023-01-31T12:36:21.218Z,1036.00
2023-01-31T12:37:21.246Z,1052.00
2023-01-31T12:38:21.178Z,1144.00
2023-01-31T12:39:21.258Z,1240.00
2023-01-31T12:40:25.133Z,1320.00
2023-01-31T12:41:21.235Z,1412.00
2023-01-31T12:42:21.138Z,1948.00
2023-01-31T12:43:21.181Z,3528.00